Flight Track Log - Related Links

Times and Time Zones

All times are in EDT time to prevent confusion due to time zone crossing. See the UAL1020 flight status page for this flight to view local times or setup timezone preferences in your user account.

Time Position Orientation Groundspeed Altitude Reporting Facility
EDT Latitude Longitude Course Direction KTS MPH feet Rate Location/Type
Tue 05:15:05 PM 29.9562 -95.3369 139° Southeast 172 198 900  Level FlightAware ADS-B
Tue 05:15:09 PM 29.9541 -95.3343 133° Southeast 176 203 1,100 1,600 Climbing FlightAware ADS-B
Tue 05:15:20 PM 29.9480 -95.3261 131° Southeast 188 216 1,300 1,655 Climbing FlightAware ADS-B
Tue 05:15:38 PM 29.9368 -95.3115 132° Southeast 199 229 1,900 1,765 Climbing FlightAware ADS-B
Tue 05:15:54 PM 29.9271 -95.2990 132° Southeast 215 247 2,300 1,304 Climbing FlightAware ADS-B
Tue 05:16:01 PM 29.9221 -95.2926 132° Southeast 226 260 2,400 1,875 Climbing FlightAware ADS-B
Tue 05:16:26 PM 29.9038 -95.2688 132° Southeast 242 278 3,300 1,902 Climbing FlightAware ADS-B
Tue 05:16:42 PM 29.8914 -95.2530 132° Southeast 261 300 3,700 1,161 Climbing FlightAware ADS-B
Tue 05:16:57 PM 29.8786 -95.2372 133° Southeast 267 307 3,900 414 Climbing FlightAware ADS-B
Tue 05:17:11 PM 29.8670 -95.2229 133° Southeast 269 310 3,900 207 Level FlightAware ADS-B
Tue 05:17:26 PM 29.8544 -95.2069 132° Southeast 267 307 4,000 632 Climbing FlightAware ADS-B
Tue 05:17:30 PM 29.8504 -95.2022 134° Southeast 264 304 4,100 1,333 Climbing FlightAware ADS-B
Tue 05:17:35 PM 29.8466 -95.1981 137° Southeast 261 300 4,200 1,333 Climbing FlightAware ADS-B
Tue 05:17:39 PM 29.8429 -95.1947 141° Southeast 260 299 4,300 2,250 Climbing FlightAware ADS-B
Tue 05:17:43 PM 29.8388 -95.1914 145° Southeast 261 300 4,500 2,667 Climbing FlightAware ADS-B
Tue 05:17:48 PM 29.8338 -95.1878 148° Southeast 261 300 4,700 2,571 Climbing FlightAware ADS-B
Tue 05:17:57 PM 29.8244 -95.1816 150° Southeast 263 303 5,100 2,870 Climbing FlightAware ADS-B
Tue 05:18:11 PM 29.8083 -95.1721 153° Southeast 267 307 5,800 2,710 Climbing FlightAware ADS-B
Tue 05:18:28 PM 29.7900 -95.1616 154° Southeast 269 310 6,500 2,813 Climbing FlightAware ADS-B
Tue 05:18:43 PM 29.7731 -95.1519 154° Southeast 268 308 7,300 2,903 Climbing FlightAware ADS-B
Tue 05:18:59 PM 29.7556 -95.1418 153° Southeast 273 314 8,000 2,323 Climbing FlightAware ADS-B
Tue 05:19:14 PM 29.7377 -95.1313 153° Southeast 282 325 8,500 2,129 Climbing FlightAware ADS-B
Tue 05:19:30 PM 29.7191 -95.1207 154° Southeast 289 333 9,100 2,323 Climbing FlightAware ADS-B
Tue 05:19:45 PM 29.7010 -95.1104 154° Southeast 292 336 9,700 2,000 Climbing FlightAware ADS-B
Tue 05:20:15 PM 29.6632 -95.0890 154° Southeast 313 360 10,600 1,500 Climbing FlightAware ADS-B
Tue 05:20:45 PM 29.6216 -95.0655 154° Southeast 346 398 11,200 1,800 Climbing FlightAware ADS-B
Tue 05:21:15 PM 29.5785 -95.0412 154° Southeast 355 409 12,400 2,364 Climbing FlightAware ADS-B
Tue 05:21:51 PM 29.5234 -95.0102 154° Southeast 361 415 13,800 2,206 Climbing FlightAware ADS-B
Tue 05:22:23 PM 29.4756 -94.9833 154° Southeast 373 429 14,900 2,226 Climbing FlightAware ADS-B
Tue 05:22:53 PM 29.4282 -94.9568 154° Southeast 377 434 16,100 2,262 Climbing FlightAware ADS-B
Tue 05:23:24 PM 29.3793 -94.9293 154° Southeast 382 440 17,200 2,164 Climbing FlightAware ADS-B
Tue 05:23:54 PM 29.3309 -94.9022 154° Southeast 386 444 18,300 2,077 Climbing FlightAware ADS-B
Tue 05:24:16 PM 29.2970 -94.8829 154° Southeast 389 448 19,000 1,800 Climbing FlightAware ADS-B
Tue 05:24:24 PM 29.2844 -94.8737 148° Southeast 391 450 19,200 1,765 Climbing FlightAware ADS-B
Tue 05:24:33 PM 29.2718 -94.8617 140° Southeast 394 453 19,500 1,895 Climbing FlightAware ADS-B
Tue 05:24:43 PM 29.2588 -94.8454 132° Southeast 395 455 19,800 1,667 Climbing FlightAware ADS-B
Tue 05:24:51 PM 29.2502 -94.8313 125° Southeast 397 457 20,000 1,615 Climbing FlightAware ADS-B
Tue 05:26:01 PM 29.1824 -94.7026 121° Southeast 415 478 21,900 1,706 Climbing FlightAware ADS-B
Tue 05:26:40 PM 29.1360 -94.6340 128° Southeast 419 482 23,100 1,671 Climbing FlightAware ADS-B
Tue 05:27:20 PM 29.0880 -94.5650 129° Southeast 426 490 24,100 1,032 Climbing FlightAware ADS-B
Tue 05:28:13 PM 29.0280 -94.4790 129° Southeast 432 497 24,700 321 Climbing FlightAware ADS-B
Tue 05:29:12 PM 28.9660 -94.3890 128° Southeast 432 497 24,700  Level FlightAware ADS-B
Tue 05:29:49 PM 28.9270 -94.3320 128° Southeast 432 497 24,700 2,172 Level FlightAware ADS-B
Tue 05:31:08 PM 28.7861 -94.1413 130° Southeast 467 537 28,900 2,933 Climbing FlightAware ADS-B
Tue 05:31:19 PM 28.7711 -94.1204 129° Southeast 469 540 29,100 1,000 Climbing FlightAware ADS-B
Tue 05:32:08 PM 28.7030 -94.0253 129° Southeast 471 542 29,900 1,229 Climbing FlightAware ADS-B
Tue 05:34:44 PM 28.4835 -93.7221 129° Southeast 471 542 33,300 1,211 Climbing FlightAware ADS-B
Tue 05:35:46 PM 28.3981 -93.6039 129° Southeast 471 542 34,300 1,010 Climbing FlightAware ADS-B
Tue 05:36:25 PM 28.3445 -93.5295 129° Southeast 468 539 35,000 609 Climbing FlightAware ADS-B
Tue 05:36:55 PM 28.3144 -93.4881 129° Southeast 467 537 35,000  Level Houston Center
Tue 05:37:58 PM 28.2322 -93.3739 129° Southeast 468 539 35,000  Level Houston Center
Tue 05:39:00 PM 28.1497 -93.2597 129° Southeast 467 537 35,000  Level Houston Center
Tue 05:40:02 PM 28.0650 -93.1450 130° Southeast 466 536 35,000 -48 Level Houston Center
Tue 05:41:04 PM 27.9664 -93.0106 130° Southeast 464 534 34,900  Descending Houston Center
Tue 05:42:06 PM 27.8847 -92.8978 129° Southeast 464 534 35,000 48 Climbing Houston Center
Tue 05:43:08 PM 27.8022 -92.7867 130° Southeast 463 533 35,000  Level Houston Center
Tue 05:44:10 PM 27.7194 -92.6764 130° Southeast 462 532 35,000  Level Houston Center
Tue 05:45:12 PM 27.6350 -92.5658 131° Southeast 466 536 35,000  Level Houston Center
Tue 05:46:14 PM 27.5517 -92.4528 130° Southeast 470 541 35,000  Level Houston Center
Tue 05:47:17 PM 27.4514 -92.3158 130° Southeast 472 543 35,000  Level Houston Center
Tue 05:48:19 PM 27.3675 -92.2047 130° Southeast 469 540 35,000  Level Houston Center
Tue 05:49:21 PM 27.2825 -92.0922 130° Southeast 471 542 35,000  Level Houston Center
Tue 05:50:23 PM 27.1986 -91.9825 131° Southeast 468 539 35,000  Level Houston Center
Tue 05:51:25 PM 27.0992 -91.8861 139° Southeast 476 548 35,000  Level Houston Center
Tue 05:53:00 PM 26.9475 -91.7633 144° Southeast  Level FlightAware Approximate
Tue 06:00:00 PM 26.2737 -91.2278 147° Southeast  Level FlightAware Approximate
Tue 06:01:00 PM 26.1748 -91.1559 147° Southeast  Level FlightAware Approximate
Tue 06:02:00 PM 26.0787 -91.0795 144° Southeast  Level FlightAware Approximate
Tue 06:03:00 PM 25.9827 -91.0030 145° Southeast  Level FlightAware Approximate
Tue 06:04:00 PM 25.8864 -90.9270 145° Southeast  Level FlightAware Approximate
Tue 06:05:00 PM 25.7900 -90.8511 145° Southeast  Level FlightAware Approximate
Tue 06:06:00 PM 25.6936 -90.7754 145° Southeast  Level FlightAware Approximate
Tue 06:07:00 PM 25.5972 -90.6998 145° Southeast  Level FlightAware Approximate
Tue 06:08:00 PM 25.5007 -90.6243 145° Southeast  Level FlightAware Approximate
Tue 06:09:00 PM 25.4042 -90.5489 145° Southeast  Level FlightAware Approximate
Tue 06:10:00 PM 25.3076 -90.4737 145° Southeast  Level FlightAware Approximate
Tue 06:11:00 PM 25.2110 -90.3986 145° Southeast  Level FlightAware Approximate
Tue 06:12:00 PM 25.1144 -90.3235 145° Southeast  Level FlightAware Approximate
Tue 06:13:00 PM 25.0177 -90.2486 145° Southeast  Level FlightAware Approximate
Tue 06:14:00 PM 24.9210 -90.1739 145° Southeast  Level FlightAware Approximate
Tue 06:15:00 PM 24.8243 -90.0992 145° Southeast  Level FlightAware Approximate
Tue 06:16:00 PM 24.7275 -90.0247 145° Southeast  Level FlightAware Approximate
Tue 06:17:00 PM 24.6307 -89.9502 145° Southeast  Level FlightAware Approximate
Tue 06:18:00 PM 24.5338 -89.8759 145° Southeast  Level FlightAware Approximate
Tue 06:19:00 PM 24.4382 -89.8002 146° Southeast  Level FlightAware Approximate
Tue 06:20:00 PM 24.3399 -89.7282 146° Southeast  Level FlightAware Approximate
Tue 06:21:00 PM 24.2417 -89.6564 146° Southeast  Level FlightAware Approximate
Tue 06:22:00 PM 24.1434 -89.5847 146° Southeast  Level FlightAware Approximate
Tue 06:23:00 PM 24.0451 -89.5129 145° Southeast  Level FlightAware Approximate
Tue 06:24:00 PM 23.9489 -89.4379 145° Southeast  Level FlightAware Approximate
Tue 06:25:00 PM 23.8527 -89.3630 145° Southeast  Level FlightAware Approximate
Tue 06:26:00 PM 23.7564 -89.2883 145° Southeast  Level FlightAware Approximate
Tue 06:27:00 PM 23.6590 -89.2154 146° Southeast  Level FlightAware Approximate
Tue 06:28:00 PM 23.5614 -89.1427 146° Southeast  Level FlightAware Approximate
Tue 06:29:00 PM 23.4639 -89.0702 146° Southeast  Level FlightAware Approximate
Tue 06:30:00 PM 23.3663 -88.9977 146° Southeast  Level FlightAware Approximate
Tue 06:31:00 PM 23.2686 -88.9254 146° Southeast  Level FlightAware Approximate
Tue 06:32:00 PM 23.1709 -88.8532 146° Southeast  Level FlightAware Approximate
Tue 06:32:21 PM 22.8590 -88.6210 145° Southeast 436 502 35,000  Level FlightAware ADS-B
Tue 06:33:00 PM 23.0746 -88.7789 145° Southeast  Level FlightAware Approximate
Tue 06:33:05 PM 22.7880 -88.5690 146° Southeast 436 502 35,000  Level FlightAware ADS-B
Tue 06:33:45 PM 22.7330 -88.5280 145° Southeast 436 502 35,000  Level FlightAware ADS-B
Tue 06:34:25 PM 22.6450 -88.4640 146° Southeast 436 502 35,000  Level FlightAware ADS-B
Tue 06:35:09 PM 22.5740 -88.4110 145° Southeast 436 502 35,000 -1,310 Level FlightAware ADS-B
Tue 06:35:52 PM 22.5070 -88.3490 139° Southeast 437 503 33,100 -2,412 Descending FlightAware ADS-B
Tue 06:36:51 PM 22.4170 -88.2640 139° Southeast 426 490 30,900 -2,021 Descending FlightAware ADS-B
Tue 06:37:27 PM 22.3740 -88.2230 139° Southeast 420 483 29,900 -2,154 Descending FlightAware ADS-B
Tue 06:38:09 PM 22.3050 -88.1580 139° Southeast 418 481 28,100 -2,318 Descending FlightAware ADS-B
Tue 06:38:55 PM 22.2370 -88.0950 139° Southeast 408 470 26,500 -2,027 Descending FlightAware ADS-B
Tue 06:39:23 PM 22.1970 -88.0570 139° Southeast 402 463 25,600 -1,941 Descending FlightAware ADS-B
Tue 06:40:03 PM 22.1410 -88.0040 139° Southeast 393 452 24,300 -2,093 Descending FlightAware ADS-B
Tue 06:40:49 PM 22.0790 -87.9460 139° Southeast 384 442 22,600 -2,047 Descending FlightAware ADS-B
Tue 06:41:28 PM 22.0270 -87.8970 139° Southeast 382 440 21,400 -1,823 Descending FlightAware ADS-B
Tue 06:42:08 PM 21.9750 -87.8490 139° Southeast 375 432 20,200 -1,800 Descending FlightAware ADS-B
Tue 06:42:48 PM 21.9250 -87.8020 139° Southeast 367 422 19,000 -1,862 Descending FlightAware ADS-B
Tue 06:43:35 PM 21.8610 -87.7430 139° Southeast 360 414 17,500 -1,851 Descending FlightAware ADS-B
Tue 06:44:22 PM 21.8030 -87.6890 139° Southeast 353 406 16,100 -1,724 Descending FlightAware ADS-B
Tue 06:45:02 PM 21.7550 -87.6440 139° Southeast 346 398 15,000 -1,680 Descending FlightAware ADS-B
Tue 06:45:37 PM 21.7130 -87.6050 139° Southeast 341 392 14,000 -1,671 Descending FlightAware ADS-B
Tue 06:46:21 PM 21.6630 -87.5590 139° Southeast 335 386 12,800 -1,667 Descending FlightAware ADS-B
Tue 06:47:07 PM 21.6090 -87.5080 139° Southeast 328 377 11,500 -1,618 Descending FlightAware ADS-B
Tue 06:47:50 PM 21.5600 -87.4630 139° Southeast 324 373 10,400 -1,047 Descending FlightAware ADS-B
Tue 06:48:33 PM 21.5120 -87.4180 139° Southeast 297 342 10,000 -771 Descending FlightAware ADS-B
Tue 06:49:00 PM 21.4860 -87.3940 139° Southeast 284 327 9,500 -1,269 Descending FlightAware ADS-B
Tue 06:49:25 PM 21.4610 -87.3710 139° Southeast 282 325 8,900 -1,393 Descending FlightAware ADS-B
Tue 06:49:56 PM 21.4300 -87.3420 139° Southeast 279 321 8,200 -1,322 Descending FlightAware ADS-B
Tue 06:50:24 PM 21.4030 -87.3170 139° Southeast 278 320 7,600 -1,179 Descending FlightAware ADS-B
Tue 06:50:52 PM 21.3790 -87.2960 141° Southeast 275 316 7,100 -1,448 Descending FlightAware ADS-B
Tue 06:51:22 PM 21.3430 -87.2620 139° Southeast 273 314 6,200 -1,556 Descending FlightAware ADS-B
Tue 06:51:46 PM 21.3200 -87.2410 140° Southeast 270 311 5,700 -1,143 Descending FlightAware ADS-B
Tue 06:52:04 PM 21.3050 -87.2270 139° Southeast 269 310 5,400 -1,304 Descending FlightAware ADS-B
Tue 06:52:32 PM 21.2770 -87.2010 139° Southeast 268 308 4,700 -1,286 Descending FlightAware ADS-B
Tue 06:53:00 PM 21.2510 -87.1780 140° Southeast 265 305 4,200 -900 Descending FlightAware ADS-B
Tue 06:53:12 PM 21.2400 -87.1670 137° Southeast 260 299 4,100 -450 Descending FlightAware ADS-B
Tue 06:53:40 PM 21.2180 -87.1420 133° Southeast 238 274 3,900 -107 Descending FlightAware ADS-B
Tue 06:54:08 PM 21.2010 -87.1150 124° Southeast 236 272 4,000 103 Climbing FlightAware ADS-B
Tue 06:54:38 PM 21.1820 -87.0850 124° Southeast 237 273 4,000 -207 Level FlightAware ADS-B
Tue 06:55:06 PM 21.1650 -87.0580 124° Southeast 227 261 3,800 -600 Descending FlightAware ADS-B
Tue 06:55:18 PM 21.1580 -87.0470 124° Southeast 224 258 3,600 -1,105 Descending FlightAware ADS-B
Tue 06:55:44 PM 21.1440 -87.0240 123° Southeast 215 247 3,100 -1,179 Descending FlightAware ADS-B
Tue 06:56:14 PM 21.1280 -86.9990 124° Southeast 209 241 2,500 -1,116 Descending FlightAware ADS-B
Tue 06:56:27 PM 21.1210 -86.9870 122° Southeast 207 238 2,300 -878 Descending FlightAware ADS-B
Tue 06:56:55 PM 21.1060 -86.9640 125° Southeast 187 215 1,900 -906 Descending FlightAware ADS-B
Tue 06:57:20 PM 21.0960 -86.9470 122° Southeast 168 193 1,500 -824 Descending FlightAware ADS-B
Tue 06:57:46 PM 21.0870 -86.9340 127° Southeast 156 180 1,200 -900 Descending FlightAware ADS-B
Tue 06:58:20 PM 21.0720 -86.9090 123° Southeast 153 176 600 -842 Descending FlightAware ADS-B
Tue 06:58:43 PM 21.0640 -86.8970 126° Southeast 155 178 400 -612 Descending FlightAware ADS-B
Tue 06:59:09 PM 21.0570 -86.8850 122° Southeast 152 175 100 -692 Descending FlightAware ADS-B

Login

Don't have an account? Register now (free) for customized features, flight alerts, and more!